Aérodrome :
LOGIN :

S'inscrire | Disclaimer

   EN    FR    IT 

 










Légende :    VFR   VFR Marginal   IFR   IFR Intensif   IFR Très Intensif
Visi : 
Plafond : 
>= 8 km
>= 3000ft
5 à 8 km
1000 à 3000 ft
1500m à 5 km
500 à 1000 ft
800 à 1500m
200 à 500 ft
< 800m
< 200 ft
Symboles :   Orages  Brouillard  Fortes neiges  Fortes précipitations  Vent > 20 kt
SIGMETs :   Divers  Orages  Givrage  Turbulence  Onde Orograph.  Cendres Volcan.






- Altitude de l'aérodrome : 16 ft
- Code IATA : EAS


LESO - San Sebastian Fuenterrabia

DERNIER METAR :
  • 201230Z 07005KT 020V100 CAVOK 05/M01 Q1035

METARs EXPIRÉS :
  • 201200Z 08005KT CAVOK 04/M01 Q1036
  • 201130Z 10003KT 030V140 CAVOK 05/M01 Q1036
  • 201100Z 08005KT 050V130 9999 SCT035 04/M01 Q1036
  • 201030Z 06005KT 010V130 9999 FEW018 SCT030 04/M01 Q1036
  • 201000Z 06007KT 020V100 9999 SCT021 03/M01 Q1037

TAF TAF LESO
Valide du 20 à 12h jusqu'au 21 à 12h UTC


201100Z 2012/2112 05009KT 9999 SCT025 TX08/2014Z TN00/2104Z
PROB40
TEMPO 2012/2021 06015G25KT
TEMPO 2106/2112 3000 BR BKN010



MET'MAP, la Météo Aéronautique d'un coup d'oeil ! - Copyright ORBIFLY Décembre 2007 - Disclaimer

ORBIFLY MET'MAP TEAM :

Programmation & Développement : Alexandra Zaïnal
Sur une idée originale de : Baudouin d'Aumeries
Assistance à la programmation : Marc-Olivier Méhu
Soutien technique & logistique : Manuel Goepfert

Contact : metmap@orbifly.com




SOURCES & CREDITS :

   NOAA